Time;durP1;ratioP1;P1;durP2;ratioP2;P2;SDS_P1;SDS_P2;PMS_P1;PMS_P2;Temp;Humidity;BMP_temperature;BMP_pressure;BME280_temperature;BME280_humidity;BME280_pressure;Samples;Min_cycle;Max_cycle;Signal;HPM_P1;HPM_P2
2022/12/20 00:01:56;;;;;;;4.70;3.75;;;8.90;99.90;;;;;;5080701;28;20041;-76
2022/12/20 00:04:22;;;;;;;9.88;4.55;;;8.90;99.90;;;;;;5027497;28;20048;-76
2022/12/20 00:06:47;;;;;;;9.05;3.92;;;8.90;99.90;;;;;;5049367;28;20405;-75
2022/12/20 00:09:13;;;;;;;8.07;3.95;;;8.90;99.90;;;;;;5047917;28;20045;-76
2022/12/20 00:11:40;;;;;;;6.13;3.92;;;9.00;99.90;;;;;;5049124;28;20037;-76
2022/12/20 00:14:06;;;;;;;6.97;3.42;;;9.30;99.90;;;;;;5047003;28;20145;-76
2022/12/20 00:16:32;;;;;;;3.60;3.30;;;9.40;99.90;;;;;;5037139;28;20057;-76
2022/12/20 00:19:02;;;;;;;9.07;3.90;;;9.00;99.90;;;;;;5047746;28;20041;-75
2022/12/20 00:21:30;;;;;;;5.25;3.63;;;9.00;99.90;;;;;;5046986;28;20400;-75
2022/12/20 00:23:56;;;;;;;7.38;3.92;;;9.00;99.90;;;;;;5046952;28;20044;-76
2022/12/20 00:26:25;;;;;;;4.43;3.25;;;9.40;99.90;;;;;;5046750;28;20129;-78
2022/12/20 00:28:50;;;;;;;5.65;2.97;;;9.00;99.90;;;;;;5048003;28;20072;-78
2022/12/20 00:31:18;;;;;;;5.60;3.08;;;10.30;99.90;;;;;;5041695;28;20072;-77
2022/12/20 00:33:46;;;;;;;4.13;3.20;;;9.00;99.90;;;;;;5042235;28;20033;-78
2022/12/20 00:36:12;;;;;;;3.92;3.22;;;8.90;99.90;;;;;;5030381;28;20127;-78
2022/12/20 00:38:38;;;;;;;6.63;3.80;;;8.90;99.90;;;;;;5040828;28;20514;-77
2022/12/20 00:41:07;;;;;;;7.97;3.47;;;9.10;99.90;;;;;;5054810;28;20076;-77
2022/12/20 00:43:33;;;;;;;6.03;3.35;;;9.00;99.90;;;;;;5046929;28;20041;-76
2022/12/20 00:46:00;;;;;;;4.85;3.30;;;9.50;99.90;;;;;;5043513;28;20037;-78
2022/12/20 00:48:26;;;;;;;6.70;3.05;;;9.50;99.90;;;;;;5047118;28;20045;-76
2022/12/20 00:50:56;;;;;;;5.40;2.97;;;7.90;99.90;;;;;;5031113;28;20047;-78
2022/12/20 00:53:22;;;;;;;6.13;3.45;;;9.80;99.90;;;;;;5048265;28;21410;-76
2022/12/20 00:55:48;;;;;;;4.50;3.17;;;9.80;99.90;;;;;;5049611;28;20099;-79
2022/12/20 00:58:13;;;;;;;6.20;3.30;;;8.80;99.90;;;;;;5063084;28;20129;-78
2022/12/20 01:00:39;;;;;;;4.40;2.65;;;9.40;99.90;;;;;;5051623;28;20033;-78
2022/12/20 01:03:05;;;;;;;5.43;3.00;;;8.90;99.90;;;;;;5037718;28;20049;-77
2022/12/20 01:05:31;;;;;;;6.82;3.08;;;8.90;99.90;;;;;;5046438;28;20037;-76
2022/12/20 01:07:57;;;;;;;3.78;2.75;;;8.90;99.90;;;;;;5079801;28;20489;-76
2022/12/20 01:10:23;;;;;;;5.28;3.20;;;8.90;99.90;;;;;;5046059;28;20037;-77
2022/12/20 01:12:49;;;;;;;4.38;2.65;;;8.90;99.90;;;;;;5034149;28;20086;-78
2022/12/20 01:15:15;;;;;;;6.53;2.72;;;9.50;99.90;;;;;;5031295;28;20056;-76
2022/12/20 01:17:40;;;;;;;3.35;2.65;;;10.50;99.90;;;;;;5049504;28;20107;-77
2022/12/20 01:20:07;;;;;;;3.95;2.95;;;9.10;99.90;;;;;;5029942;28;20041;-76
2022/12/20 01:22:32;;;;;;;5.65;3.08;;;9.00;99.90;;;;;;5047994;28;20048;-76
2022/12/20 01:24:58;;;;;;;2.55;2.33;;;10.30;99.90;;;;;;5079548;28;20044;-77
2022/12/20 01:27:24;;;;;;;3.40;2.50;;;9.00;99.90;;;;;;5047415;28;20396;-77
2022/12/20 01:29:50;;;;;;;3.67;2.45;;;9.00;99.90;;;;;;5046940;28;20090;-76
2022/12/20 01:32:16;;;;;;;5.07;2.75;;;9.00;99.90;;;;;;5046073;28;20041;-77
2022/12/20 01:34:41;;;;;;;2.85;2.20;;;9.00;99.90;;;;;;5030295;28;20505;-76
2022/12/20 01:37:07;;;;;;;4.43;2.60;;;10.60;99.90;;;;;;5030513;28;20041;-78
2022/12/20 01:39:33;;;;;;;2.80;2.25;;;10.00;99.90;;;;;;5041306;28;20078;-77
2022/12/20 01:41:58;;;;;;;4.03;2.75;;;9.00;99.90;;;;;;5035663;28;20101;-78
2022/12/20 01:44:24;;;;;;;6.72;2.55;;;9.40;99.90;;;;;;5044957;28;20041;-78
2022/12/20 01:46:51;;;;;;;2.55;2.28;;;10.10;99.90;;;;;;5073093;28;20046;-77
2022/12/20 01:49:26;;;;;;;6.35;2.60;;;8.90;99.90;;;;;;5033622;28;20094;-76
2022/12/20 01:51:56;;;;;;;7.32;2.72;;;9.00;99.90;;;;;;5067506;28;20056;-76
2022/12/20 01:54:33;;;;;;;5.93;2.45;;;8.90;99.90;;;;;;5049438;28;20052;-76
2022/12/20 01:57:09;;;;;;;7.07;3.00;;;8.90;99.90;;;;;;5033589;28;20048;-76
2022/12/20 01:59:37;;;;;;;3.60;1.98;;;9.70;99.90;;;;;;5051387;28;20033;-76
2022/12/20 02:02:09;;;;;;;8.57;2.55;;;10.20;99.90;;;;;;5049481;28;20102;-76
2022/12/20 02:04:35;;;;;;;3.88;2.42;;;8.90;99.90;;;;;;5034899;28;20037;-77
2022/12/20 02:07:02;;;;;;;5.65;2.65;;;9.80;99.90;;;;;;5050234;28;20037;-77
2022/12/20 02:09:30;;;;;;;3.38;2.85;;;8.90;99.90;;;;;;5055609;28;20126;-77
2022/12/20 02:12:14;;;;;;;4.80;2.60;;;10.10;99.90;;;;;;5051452;28;20044;-77
2022/12/20 02:14:55;;;;;;;5.57;2.35;;;10.00;99.90;;;;;;5053974;28;20044;-76
2022/12/20 02:18:03;;;;;;;3.50;2.50;;;8.90;99.90;;;;;;5050066;28;20094;-77
2022/12/20 02:20:50;;;;;;;3.08;2.78;;;8.90;99.90;;;;;;5027491;28;20399;-77
2022/12/20 02:23:55;;;;;;;5.70;2.20;;;8.90;99.90;;;;;;5075478;28;20119;-76
2022/12/20 02:26:20;;;;;;;3.23;2.20;;;9.00;99.90;;;;;;5045997;28;20528;-76
2022/12/20 02:29:14;;;;;;;3.60;2.72;;;8.90;99.90;;;;;;5049909;28;20083;-76
2022/12/20 02:32:04;;;;;;;3.20;2.22;;;8.90;99.90;;;;;;5033342;28;20053;-78
2022/12/20 02:34:34;;;;;;;3.80;2.53;;;8.90;99.90;;;;;;5048844;28;20056;-77
2022/12/20 02:36:59;;;;;;;4.18;2.67;;;8.90;99.90;;;;;;5031496;28;20093;-76
2022/12/20 02:39:27;;;;;;;3.75;2.75;;;8.80;99.90;;;;;;5041084;28;20520;-76
2022/12/20 02:42:12;;;;;;;6.07;2.72;;;10.40;99.90;;;;;;5048411;28;20037;-76
2022/12/20 02:47:40;;;;;;;5.15;2.90;;;10.20;99.90;;;;;;5051209;28;20045;-76
2022/12/20 02:50:07;;;;;;;5.03;2.53;;;8.90;99.90;;;;;;5021471;28;20619;-76
2022/12/20 02:52:34;;;;;;;2.88;2.65;;;8.90;99.90;;;;;;5032789;28;20401;-76
2022/12/20 02:55:01;;;;;;;4.55;2.40;;;9.00;99.90;;;;;;5032166;28;20040;-76
2022/12/20 02:57:44;;;;;;;7.78;2.20;;;9.00;99.90;;;;;;5036081;28;20042;-77
2022/12/20 03:00:21;;;;;;;6.90;2.35;;;8.90;99.90;;;;;;5049043;28;20376;-77
2022/12/20 03:05:34;;;;;;;6.18;3.10;;;8.90;99.90;;;;;;5047509;28;20053;-76
2022/12/20 03:08:00;;;;;;;3.85;2.80;;;8.90;99.90;;;;;;5049158;28;20099;-77
2022/12/20 03:10:27;;;;;;;7.45;2.63;;;10.20;99.90;;;;;;5031512;28;20068;-77
2022/12/20 03:12:52;;;;;;;5.57;3.13;;;10.20;99.90;;;;;;5065171;28;20807;-77
2022/12/20 03:15:18;;;;;;;3.90;2.97;;;8.80;99.90;;;;;;5049745;28;20033;-78
2022/12/20 03:17:44;;;;;;;4.97;3.17;;;10.10;99.90;;;;;;5049441;28;20224;-77
2022/12/20 03:20:10;;;;;;;4.82;3.15;;;8.80;99.90;;;;;;5048300;28;20056;-77
2022/12/20 03:22:36;;;;;;;4.32;3.03;;;9.10;99.90;;;;;;5048901;28;20032;-77
2022/12/20 03:25:02;;;;;;;4.97;2.67;;;8.80;99.90;;;;;;5047790;28;20041;-77
2022/12/20 03:27:28;;;;;;;5.28;2.97;;;8.80;99.90;;;;;;5050118;28;20040;-77
2022/12/20 03:29:54;;;;;;;6.45;2.92;;;8.80;99.90;;;;;;5048351;28;20094;-78
2022/12/20 03:32:20;;;;;;;3.65;2.90;;;9.80;99.90;;;;;;5049113;28;20084;-78
2022/12/20 03:34:46;;;;;;;5.40;3.22;;;8.80;99.90;;;;;;5048498;28;20036;-77
2022/12/20 03:37:12;;;;;;;4.63;2.85;;;9.30;99.90;;;;;;5048203;28;20045;-78
2022/12/20 03:39:37;;;;;;;3.63;2.65;;;8.90;99.90;;;;;;5064976;28;20114;-77
2022/12/20 03:42:03;;;;;;;6.43;3.20;;;9.20;99.90;;;;;;5047615;28;20045;-78
2022/12/20 03:44:29;;;;;;;4.88;3.25;;;8.90;99.90;;;;;;5048653;28;20045;-77
2022/12/20 03:46:54;;;;;;;4.40;3.13;;;9.70;99.90;;;;;;5047466;28;20041;-78
2022/12/20 03:49:20;;;;;;;4.85;2.63;;;9.90;99.90;;;;;;5044808;28;20343;-77
2022/12/20 03:51:45;;;;;;;3.78;3.20;;;9.60;99.90;;;;;;5077051;28;20041;-78
2022/12/20 03:54:11;;;;;;;3.38;2.58;;;8.90;99.90;;;;;;5039403;28;20041;-77
2022/12/20 03:56:37;;;;;;;4.13;2.72;;;8.90;99.90;;;;;;5049620;28;20131;-77
2022/12/20 03:59:03;;;;;;;6.00;3.22;;;10.10;99.90;;;;;;5030575;28;20045;-77
2022/12/20 04:01:29;;;;;;;4.60;2.95;;;8.90;99.90;;;;;;5034941;28;20039;-77
2022/12/20 04:03:55;;;;;;;4.75;3.13;;;8.90;99.90;;;;;;5040951;28;20045;-76
2022/12/20 04:06:22;;;;;;;4.47;2.88;;;8.90;99.90;;;;;;5030247;28;20056;-78
2022/12/20 04:08:48;;;;;;;4.40;2.67;;;8.10;99.90;;;;;;5049427;28;20484;-77
2022/12/20 04:11:17;;;;;;;5.60;2.80;;;9.00;99.90;;;;;;5049124;28;20052;-79
2022/12/20 04:13:48;;;;;;;3.60;2.75;;;8.90;99.90;;;;;;5047527;28;20057;-77
2022/12/20 04:16:16;;;;;;;3.33;3.00;;;9.00;99.90;;;;;;5048816;28;20065;-77
2022/12/20 04:18:42;;;;;;;4.07;2.75;;;9.00;99.90;;;;;;5049256;28;20049;-78
2022/12/20 04:21:09;;;;;;;3.15;2.85;;;10.40;99.90;;;;;;5047977;28;20068;-77
2022/12/20 04:23:36;;;;;;;4.65;3.05;;;9.00;99.90;;;;;;5049142;28;20044;-79
2022/12/20 04:26:02;;;;;;;7.32;3.65;;;9.10;99.90;;;;;;5049143;28;20041;-77
2022/12/20 04:28:29;;;;;;;7.57;3.05;;;9.10;99.90;;;;;;5048348;28;20095;-79
2022/12/20 04:30:54;;;;;;;3.85;3.10;;;9.10;99.90;;;;;;5051789;28;20652;-79
2022/12/20 04:33:21;;;;;;;3.88;2.72;;;9.60;99.90;;;;;;5048660;28;20080;-79
2022/12/20 04:35:47;;;;;;;5.68;3.40;;;9.10;99.90;;;;;;5034676;28;20045;-78
2022/12/20 04:38:13;;;;;;;3.53;2.80;;;10.30;99.90;;;;;;5087764;28;20044;-80
2022/12/20 04:40:39;;;;;;;4.85;3.22;;;9.10;99.90;;;;;;5056453;28;20060;-79
2022/12/20 04:43:05;;;;;;;4.32;3.13;;;9.60;99.90;;;;;;5065219;28;20048;-80
2022/12/20 04:45:30;;;;;;;7.78;3.47;;;9.10;99.90;;;;;;5054045;28;20079;-80
2022/12/20 04:47:56;;;;;;;5.30;3.33;;;9.30;99.90;;;;;;5047650;28;20049;-79
2022/12/20 04:50:22;;;;;;;3.70;2.47;;;10.10;99.90;;;;;;5047130;28;20033;-79
2022/12/20 04:55:39;;;;;;;11.82;3.25;;;10.70;99.90;;;;;;5073228;28;20048;-79
2022/12/20 04:58:06;;;;;;;4.70;3.17;;;9.20;99.90;;;;;;5027006;28;20071;-76
2022/12/20 05:00:32;;;;;;;10.38;3.72;;;9.20;99.90;;;;;;5048769;28;20072;-77
2022/12/20 05:02:58;;;;;;;4.55;3.20;;;10.30;99.90;;;;;;5029722;28;20163;-77
2022/12/20 05:05:24;;;;;;;5.70;3.40;;;9.30;99.90;;;;;;5041352;28;20511;-77
2022/12/20 05:07:50;;;;;;;3.83;3.42;;;9.30;99.90;;;;;;5030269;28;20508;-77
2022/12/20 05:10:17;;;;;;;5.50;3.75;;;9.90;99.90;;;;;;5047870;28;20049;-77
2022/12/20 05:12:43;;;;;;;5.35;3.22;;;9.30;99.90;;;;;;5030578;28;20041;-77
2022/12/20 05:15:09;;;;;;;4.38;3.00;;;10.70;99.90;;;;;;5050499;28;20045;-77
2022/12/20 05:17:35;;;;;;;5.50;2.85;;;9.40;99.90;;;;;;5050370;28;20083;-77
2022/12/20 05:20:01;;;;;;;5.93;2.80;;;9.30;99.90;;;;;;5046391;28;20083;-78
2022/12/20 05:27:55;;;;;;;4.00;3.10;;;9.40;99.90;;;;;;5045988;28;20140;-79
2022/12/20 05:30:22;;;;;;;4.60;2.85;;;9.40;99.90;;;;;;5033801;28;20136;-79
2022/12/20 05:32:47;;;;;;;4.13;3.35;;;9.50;99.90;;;;;;5049882;28;20036;-79
2022/12/20 05:35:13;;;;;;;4.03;3.03;;;9.50;99.90;;;;;;5033443;28;20072;-79
2022/12/20 05:37:39;;;;;;;3.13;2.75;;;9.40;99.90;;;;;;5050271;28;20040;-77
2022/12/20 05:40:05;;;;;;;5.95;2.88;;;11.00;99.90;;;;;;5033810;28;20044;-79
2022/12/20 05:42:31;;;;;;;5.13;3.20;;;10.10;99.90;;;;;;5051470;28;20049;-78
2022/12/20 05:44:57;;;;;;;3.88;2.67;;;10.60;99.90;;;;;;5066659;28;20056;-78
2022/12/20 05:47:22;;;;;;;4.57;2.85;;;9.20;99.90;;;;;;5051713;28;20094;-78
2022/12/20 05:49:48;;;;;;;4.50;2.67;;;11.00;99.90;;;;;;5033853;28;20053;-77
2022/12/20 05:52:14;;;;;;;3.15;2.70;;;10.90;99.90;;;;;;5049525;28;20121;-79
2022/12/20 05:54:39;;;;;;;3.45;2.88;;;10.10;99.90;;;;;;5050800;28;20037;-78
2022/12/20 05:57:05;;;;;;;5.60;3.13;;;9.40;99.90;;;;;;5083722;28;20064;-77
2022/12/20 05:59:31;;;;;;;5.70;2.90;;;9.50;99.90;;;;;;5033445;28;20535;-78
2022/12/20 06:01:56;;;;;;;3.00;2.63;;;9.50;99.90;;;;;;5033308;28;20052;-77
2022/12/20 06:04:23;;;;;;;4.78;2.92;;;11.00;99.90;;;;;;5066493;28;20485;-78
2022/12/20 06:06:49;;;;;;;4.45;2.53;;;9.70;99.90;;;;;;5049834;28;20055;-77
2022/12/20 06:09:16;;;;;;;2.95;2.65;;;9.50;99.90;;;;;;5066770;28;20049;-78
2022/12/20 06:11:42;;;;;;;3.47;2.40;;;9.50;99.90;;;;;;5084070;28;20041;-77
2022/12/20 06:14:08;;;;;;;3.63;2.65;;;9.60;99.90;;;;;;5048282;28;20049;-78
2022/12/20 06:16:35;;;;;;;4.28;1.92;;;11.00;99.90;;;;;;5049459;28;20503;-77
2022/12/20 06:19:01;;;;;;;4.60;2.33;;;9.50;99.90;;;;;;5033486;28;20049;-77
2022/12/20 06:21:27;;;;;;;3.60;2.45;;;9.50;99.90;;;;;;5049130;28;20075;-78
2022/12/20 06:23:53;;;;;;;5.80;2.83;;;9.50;99.90;;;;;;5083324;28;20134;-78
2022/12/20 06:26:22;;;;;;;3.10;2.42;;;9.50;99.90;;;;;;5032402;28;20041;-79
2022/12/20 06:28:51;;;;;;;3.50;2.67;;;9.50;99.90;;;;;;5033056;28;20037;-78
2022/12/20 06:31:17;;;;;;;3.53;3.13;;;9.50;99.90;;;;;;5035073;28;20489;-79
2022/12/20 06:33:43;;;;;;;4.95;2.97;;;9.50;99.90;;;;;;5033379;28;20520;-77
2022/12/20 06:36:09;;;;;;;4.55;2.50;;;9.60;99.90;;;;;;5048952;28;20033;-77
2022/12/20 06:38:35;;;;;;;9.73;3.05;;;9.60;99.90;;;;;;5049678;28;20436;-77
2022/12/20 06:41:01;;;;;;;4.32;2.65;;;9.60;99.90;;;;;;5032904;28;20141;-77
2022/12/20 06:43:27;;;;;;;5.10;2.92;;;9.60;99.90;;;;;;5083579;28;20081;-78
2022/12/20 06:45:53;;;;;;;4.35;2.33;;;9.60;99.90;;;;;;5050912;28;20045;-78
2022/12/20 06:48:20;;;;;;;3.92;3.15;;;9.60;99.90;;;;;;5065009;28;20138;-77
2022/12/20 06:50:48;;;;;;;4.68;2.97;;;9.60;99.90;;;;;;5049280;28;20037;-76
2022/12/20 06:53:14;;;;;;;6.22;3.08;;;9.60;99.90;;;;;;5031726;28;20049;-78
2022/12/20 06:55:39;;;;;;;4.43;3.65;;;9.60;99.90;;;;;;5049203;28;20127;-79
2022/12/20 06:58:05;;;;;;;5.68;3.75;;;9.60;99.90;;;;;;5048716;28;20532;-80
2022/12/20 07:00:31;;;;;;;6.40;4.97;;;9.60;99.90;;;;;;5083523;28;20041;-78
2022/12/20 07:02:57;;;;;;;3.63;3.22;;;9.60;99.90;;;;;;5048746;28;20055;-80
2022/12/20 07:05:23;;;;;;;6.20;4.68;;;9.70;99.90;;;;;;5064660;28;20045;-80
2022/12/20 07:07:49;;;;;;;7.40;6.65;;;9.60;99.90;;;;;;5049361;28;20472;-78
2022/12/20 07:10:14;;;;;;;6.10;4.00;;;9.60;99.90;;;;;;5031483;28;20037;-78
2022/12/20 07:12:40;;;;;;;7.15;4.25;;;9.50;99.90;;;;;;5050400;28;20043;-79
2022/12/20 07:15:07;;;;;;;6.28;3.72;;;9.50;99.90;;;;;;5064831;28;20128;-79
2022/12/20 07:17:33;;;;;;;5.25;4.45;;;9.50;99.90;;;;;;5031421;28;20049;-77
2022/12/20 07:19:59;;;;;;;6.20;4.40;;;9.60;99.90;;;;;;5049460;28;20080;-78
2022/12/20 07:22:25;;;;;;;6.15;5.55;;;9.50;99.90;;;;;;5048467;28;20503;-79
2022/12/20 07:24:51;;;;;;;5.50;4.68;;;9.50;99.90;;;;;;5048199;28;20055;-77
2022/12/20 07:27:16;;;;;;;5.18;4.60;;;9.50;99.90;;;;;;5031786;28;20067;-79
2022/12/20 07:29:42;;;;;;;7.03;4.32;;;9.50;99.90;;;;;;5049245;28;20473;-80
2022/12/20 07:32:08;;;;;;;5.70;5.18;;;9.60;99.90;;;;;;5030182;28;20098;-80
2022/12/20 07:34:36;;;;;;;6.95;5.22;;;9.50;99.90;;;;;;5065498;28;20114;-79
2022/12/20 07:37:02;;;;;;;6.80;4.75;;;9.50;99.90;;;;;;5047884;28;20060;-78
2022/12/20 07:39:28;;;;;;;7.05;4.95;;;9.60;99.90;;;;;;5031139;28;20040;-79
2022/12/20 07:41:54;;;;;;;5.20;4.68;;;9.60;99.90;;;;;;5047986;28;20497;-78
2022/12/20 07:44:21;;;;;;;7.80;5.40;;;9.60;99.90;;;;;;5030467;28;20048;-79
2022/12/20 07:46:46;;;;;;;6.95;5.53;;;9.60;99.90;;;;;;5048041;28;20044;-79
2022/12/20 07:49:12;;;;;;;7.63;5.43;;;9.60;99.90;;;;;;5031098;28;20415;-79
2022/12/20 07:51:43;;;;;;;5.90;5.30;;;9.60;99.90;;;;;;5030992;28;20040;-80
2022/12/20 07:54:15;;;;;;;8.13;6.75;;;9.60;99.90;;;;;;5047629;28;20052;-79
2022/12/20 07:56:44;;;;;;;8.35;5.63;;;9.60;99.90;;;;;;5049798;28;20476;-78
2022/12/20 07:59:13;;;;;;;7.18;4.70;;;9.60;99.90;;;;;;5025863;28;20037;-81
2022/12/20 08:01:40;;;;;;;9.75;5.70;;;9.70;99.90;;;;;;5032771;28;20086;-78
2022/12/20 08:04:12;;;;;;;9.57;4.57;;;9.70;99.90;;;;;;5029181;28;20036;-78
2022/12/20 08:06:40;;;;;;;7.93;5.07;;;9.70;99.90;;;;;;5047504;28;20132;-77
2022/12/20 08:09:07;;;;;;;5.90;4.78;;;9.70;99.90;;;;;;5031093;28;20045;-78
2022/12/20 08:11:35;;;;;;;4.85;4.47;;;9.70;99.90;;;;;;5050296;28;20087;-78
2022/12/20 08:14:01;;;;;;;8.50;4.97;;;9.70;99.90;;;;;;5046663;28;20041;-79
2022/12/20 08:16:27;;;;;;;5.75;5.13;;;9.70;99.90;;;;;;5030683;28;20084;-78
2022/12/20 08:18:53;;;;;;;5.72;4.88;;;9.70;99.90;;;;;;5048662;28;20079;-77
2022/12/20 08:21:18;;;;;;;5.90;4.05;;;9.80;99.90;;;;;;5027116;28;20501;-77
2022/12/20 08:23:44;;;;;;;4.68;3.92;;;9.70;99.90;;;;;;5039534;28;20037;-78
2022/12/20 08:26:10;;;;;;;6.50;4.63;;;9.80;99.90;;;;;;5082404;28;20055;-77
2022/12/20 08:28:36;;;;;;;6.15;4.53;;;9.80;99.90;;;;;;5051762;28;20040;-78
2022/12/20 08:31:04;;;;;;;3.85;3.42;;;9.80;99.90;;;;;;5031768;28;20515;-80
2022/12/20 08:33:31;;;;;;;5.60;3.78;;;9.80;99.90;;;;;;5031129;28;20049;-79
2022/12/20 08:36:01;;;;;;;3.95;3.58;;;9.80;99.90;;;;;;5034441;28;20068;-79
2022/12/20 08:38:30;;;;;;;8.70;4.32;;;9.80;99.90;;;;;;5030646;28;20049;-78
2022/12/20 08:41:02;;;;;;;6.63;3.63;;;9.80;99.90;;;;;;5049197;28;20048;-79
2022/12/20 08:43:29;;;;;;;6.05;3.20;;;9.80;99.90;;;;;;5032636;28;20128;-77
2022/12/20 08:45:55;;;;;;;5.57;3.08;;;9.80;99.90;;;;;;5054163;28;20055;-78
2022/12/20 08:48:21;;;;;;;7.65;5.90;;;9.80;99.90;;;;;;5043383;28;20426;-76
2022/12/20 08:50:52;;;;;;;4.28;3.00;;;9.90;99.90;;;;;;5031429;28;20432;-78
2022/12/20 08:53:18;;;;;;;4.10;2.78;;;9.90;99.90;;;;;;5029935;28;20075;-79
2022/12/20 08:55:44;;;;;;;5.13;2.72;;;10.10;99.90;;;;;;5051015;28;20048;-76
2022/12/20 08:58:10;;;;;;;3.70;2.55;;;10.00;99.90;;;;;;5030123;28;20128;-77
2022/12/20 09:00:36;;;;;;;4.35;3.00;;;10.00;99.90;;;;;;5048238;28;20049;-77
2022/12/20 09:03:02;;;;;;;5.25;2.60;;;10.00;99.90;;;;;;5034893;28;20056;-77
2022/12/20 09:05:28;;;;;;;2.67;2.33;;;9.90;99.90;;;;;;5055318;28;20048;-79
2022/12/20 09:07:53;;;;;;;4.32;3.05;;;9.90;99.90;;;;;;5034032;28;20041;-78
2022/12/20 09:10:19;;;;;;;5.15;2.38;;;9.90;99.90;;;;;;5046945;28;20048;-79
2022/12/20 09:12:45;;;;;;;7.68;3.00;;;9.90;99.90;;;;;;5047152;28;20037;-76
2022/12/20 09:15:11;;;;;;;3.50;3.00;;;9.90;99.90;;;;;;5069553;28;20051;-76
2022/12/20 09:17:36;;;;;;;5.82;2.65;;;9.90;99.90;;;;;;5033068;28;20056;-78
2022/12/20 09:20:04;;;;;;;3.38;2.60;;;9.90;99.90;;;;;;5032028;28;20041;-76
2022/12/20 09:22:29;;;;;;;6.63;2.45;;;9.90;99.90;;;;;;5040693;28;20044;-76
2022/12/20 09:24:55;;;;;;;3.80;2.50;;;9.90;99.90;;;;;;5048768;28;20052;-76
2022/12/20 09:27:21;;;;;;;9.90;4.22;;;9.90;99.90;;;;;;5034055;28;20044;-75
2022/12/20 09:29:47;;;;;;;3.60;3.15;;;9.90;99.90;;;;;;5049720;28;20159;-74
2022/12/20 09:32:13;;;;;;;5.75;2.85;;;10.00;99.90;;;;;;5030703;28;20048;-75
2022/12/20 09:34:39;;;;;;;4.65;2.47;;;10.10;99.90;;;;;;5049782;28;20029;-80
2022/12/20 09:37:05;;;;;;;3.17;2.58;;;10.10;99.90;;;;;;5051052;28;20059;-78
2022/12/20 09:39:30;;;;;;;5.32;2.58;;;10.00;99.90;;;;;;5029483;28;20040;-77
2022/12/20 09:41:57;;;;;;;4.35;2.35;;;10.10;99.90;;;;;;5033499;28;20052;-79
2022/12/20 09:44:30;;;;;;;5.53;2.60;;;10.10;99.90;;;;;;5030771;28;20107;-80
2022/12/20 09:47:17;;;;;;;2.57;2.37;;;9.90;99.90;;;;;;5032500;28;20401;-79
2022/12/20 09:49:48;;;;;;;3.70;2.35;;;10.10;99.90;;;;;;5048950;28;20147;-80
2022/12/20 09:52:22;;;;;;;5.93;3.40;;;10.20;99.90;;;;;;5034335;28;20053;-79
2022/12/20 09:54:51;;;;;;;4.38;2.30;;;10.20;99.90;;;;;;5030228;28;20056;-77
2022/12/20 09:57:30;;;;;;;2.30;1.98;;;10.20;99.90;;;;;;5043777;28;20054;-79
2022/12/20 09:59:59;;;;;;;3.70;2.22;;;10.30;99.90;;;;;;5049362;28;20041;-81
2022/12/20 10:02:29;;;;;;;3.10;2.50;;;10.30;99.90;;;;;;5041161;28;20664;-80
2022/12/20 10:05:01;;;;;;;6.03;2.70;;;10.30;99.90;;;;;;5046301;28;20036;-78
2022/12/20 10:08:14;;;;;;;5.63;2.80;;;10.20;99.90;;;;;;5039976;28;20127;-79
2022/12/20 10:11:10;;;;;;;5.25;3.45;;;10.20;99.90;;;;;;4949561;28;20068;-80
2022/12/20 10:13:56;;;;;;;7.10;3.30;;;10.20;99.90;;;;;;4948702;28;20391;-80
2022/12/20 10:16:38;;;;;;;4.45;2.60;;;10.20;99.90;;;;;;5027675;28;20053;-78
2022/12/20 10:19:15;;;;;;;2.78;1.85;;;10.10;99.90;;;;;;5052932;28;20044;-80
2022/12/20 10:21:51;;;;;;;4.57;2.33;;;10.20;99.90;;;;;;5035046;28;20044;-81
2022/12/20 10:24:19;;;;;;;5.25;2.28;;;10.20;99.90;;;;;;5053828;28;20075;-79
2022/12/20 10:26:49;;;;;;;6.50;2.53;;;10.20;99.90;;;;;;5042541;28;20053;-78
2022/12/20 10:29:15;;;;;;;3.30;2.00;;;10.20;99.90;;;;;;5042392;28;20040;-79
2022/12/20 10:31:41;;;;;;;3.65;1.77;;;10.30;99.90;;;;;;5053417;28;20032;-77
2022/12/20 10:34:07;;;;;;;3.95;1.90;;;10.20;99.90;;;;;;5054060;28;20081;-77
2022/12/20 10:36:35;;;;;;;5.60;2.20;;;10.20;99.90;;;;;;5057079;28;20036;-79
2022/12/20 10:39:07;;;;;;;2.90;2.22;;;10.30;99.90;;;;;;5032333;28;20040;-77
2022/12/20 10:41:47;;;;;;;4.40;1.90;;;10.20;99.90;;;;;;5052949;28;20056;-78
2022/12/20 10:44:28;;;;;;;3.10;2.22;;;10.20;99.90;;;;;;5052266;28;20037;-79
2022/12/20 10:46:59;;;;;;;5.32;2.83;;;10.30;99.90;;;;;;5056378;28;20075;-76
2022/12/20 10:49:39;;;;;;;2.75;1.95;;;10.20;99.90;;;;;;5050130;28;20072;-78
2022/12/20 10:52:08;;;;;;;7.50;3.45;;;10.30;99.90;;;;;;5033218;28;20029;-77
2022/12/20 10:54:39;;;;;;;4.85;2.83;;;10.30;99.90;;;;;;5049916;28;20076;-76
2022/12/20 10:57:24;;;;;;;4.43;2.22;;;10.30;99.90;;;;;;5032665;28;20037;-76
2022/12/20 11:00:04;;;;;;;3.40;2.65;;;10.30;99.90;;;;;;5057479;28;20119;-76
2022/12/20 11:02:30;;;;;;;3.35;2.50;;;10.30;99.90;;;;;;5052663;28;20123;-77
2022/12/20 11:05:01;;;;;;;4.15;2.63;;;10.20;99.90;;;;;;5033031;28;20125;-75
2022/12/20 11:07:30;;;;;;;3.30;1.95;;;10.30;99.90;;;;;;5065384;28;20119;-80
2022/12/20 11:09:59;;;;;;;3.03;1.70;;;10.30;99.90;;;;;;5056110;28;20132;-78
2022/12/20 11:12:25;;;;;;;4.00;2.38;;;10.30;99.90;;;;;;5032937;28;20076;-75
2022/12/20 11:15:18;;;;;;;4.78;1.85;;;10.30;99.90;;;;;;4357647;28;10000805;-77
2022/12/20 11:17:48;;;;;;;3.10;2.03;;;10.30;99.90;;;;;;5025860;28;20084;-79
2022/12/20 11:20:47;;;;;;;4.20;1.90;;;10.20;99.90;;;;;;5045950;28;20404;-79
2022/12/20 11:23:29;;;;;;;7.68;2.20;;;10.20;99.90;;;;;;5040517;28;20040;-77
2022/12/20 11:26:10;;;;;;;8.23;2.28;;;10.20;99.90;;;;;;5046197;28;20041;-78
2022/12/20 11:28:57;;;;;;;3.17;2.42;;;10.20;99.90;;;;;;5050124;28;20037;-79
2022/12/20 11:31:45;;;;;;;6.60;1.90;;;10.20;99.90;;;;;;5076258;28;20048;-76
2022/12/20 11:34:51;;;;;;;2.92;1.77;;;10.20;99.90;;;;;;5035108;28;20051;-77
2022/12/20 11:37:26;;;;;;;3.30;2.22;;;10.20;99.90;;;;;;5051031;28;20045;-77
2022/12/20 11:40:18;;;;;;;3.22;2.20;;;10.30;99.90;;;;;;5054189;28;20041;-78
2022/12/20 11:43:15;;;;;;;4.68;3.03;;;10.20;99.90;;;;;;5059833;28;20827;-78
2022/12/20 11:45:46;;;;;;;3.03;2.38;;;10.20;99.90;;;;;;5053693;28;20037;-78
2022/12/20 11:48:55;;;;;;;2.53;2.17;;;10.10;99.90;;;;;;5045229;28;20128;-79
2022/12/20 11:51:36;;;;;;;6.25;2.88;;;10.20;99.90;;;;;;5029138;28;20057;-77
2022/12/20 11:54:37;;;;;;;5.78;2.95;;;10.20;99.90;;;;;;5055132;28;20048;-78
2022/12/20 11:57:28;;;;;;;5.20;2.75;;;10.10;99.90;;;;;;5052780;28;20080;-78
2022/12/20 11:59:59;;;;;;;6.28;2.95;;;10.20;99.90;;;;;;5048033;28;20044;-78
2022/12/20 12:02:34;;;;;;;7.93;3.35;;;10.10;99.90;;;;;;5046537;28;20045;-79
2022/12/20 12:05:17;;;;;;;4.22;2.70;;;10.10;99.90;;;;;;5048443;28;20040;-80
2022/12/20 12:07:48;;;;;;;5.60;2.78;;;10.10;99.90;;;;;;5091126;28;20101;-78
2022/12/20 12:10:20;;;;;;;8.23;2.63;;;10.10;99.90;;;;;;5051599;28;20032;-77
2022/12/20 12:13:02;;;;;;;7.03;2.78;;;10.10;99.90;;;;;;5034816;28;20048;-77
2022/12/20 12:15:37;;;;;;;4.10;2.38;;;10.00;99.90;;;;;;5081765;28;20043;-78
2022/12/20 12:18:19;;;;;;;5.13;3.00;;;10.10;99.90;;;;;;5045759;28;20064;-77
2022/12/20 12:21:05;;;;;;;3.95;2.63;;;10.10;99.90;;;;;;5079882;28;20040;-76
2022/12/20 12:24:02;;;;;;;7.85;3.28;;;10.10;99.90;;;;;;5038111;28;20513;-76
2022/12/20 12:26:40;;;;;;;3.58;3.05;;;10.00;99.90;;;;;;5030385;28;20079;-75
2022/12/20 12:29:18;;;;;;;3.30;3.00;;;10.00;99.90;;;;;;5045836;28;20052;-78
2022/12/20 12:31:57;;;;;;;3.95;2.83;;;10.00;99.90;;;;;;5048417;28;20039;-77
2022/12/20 12:34:50;;;;;;;7.15;3.08;;;10.00;99.90;;;;;;5030640;28;20041;-76
2022/12/20 12:37:25;;;;;;;3.63;2.90;;;10.00;99.90;;;;;;5053958;28;20051;-77
2022/12/20 12:40:09;;;;;;;3.58;2.67;;;10.00;99.90;;;;;;5032057;28;20143;-75
2022/12/20 12:42:54;;;;;;;3.65;3.33;;;10.00;99.90;;;;;;5045368;28;20048;-77
2022/12/20 12:45:22;;;;;;;4.82;3.75;;;10.00;99.90;;;;;;5035489;28;20103;-76
2022/12/20 12:47:54;;;;;;;4.97;3.40;;;10.00;99.90;;;;;;5056735;28;20052;-78
2022/12/20 12:50:30;;;;;;;6.70;4.55;;;9.90;99.90;;;;;;5026023;28;20029;-77
2022/12/20 12:53:05;;;;;;;4.63;4.07;;;9.90;99.90;;;;;;5046687;28;20882;-77
2022/12/20 12:55:49;;;;;;;3.70;3.40;;;9.90;99.90;;;;;;5046426;28;20688;-77
2022/12/20 12:58:24;;;;;;;4.07;3.60;;;10.00;99.90;;;;;;5052599;28;20048;-78
2022/12/20 13:00:52;;;;;;;4.20;3.78;;;9.90;99.90;;;;;;5053166;28;20081;-75
2022/12/20 13:03:42;;;;;;;5.60;4.78;;;9.90;99.90;;;;;;5034376;28;20041;-76
2022/12/20 13:06:37;;;;;;;4.97;4.00;;;9.90;99.90;;;;;;5076363;28;20456;-79
2022/12/20 13:09:02;;;;;;;5.68;3.53;;;9.90;99.90;;;;;;4966472;28;20533;-77
2022/12/20 13:11:40;;;;;;;4.88;4.25;;;9.90;99.90;;;;;;5028514;28;20136;-80
2022/12/20 13:14:23;;;;;;;5.03;3.90;;;9.90;99.90;;;;;;5076153;28;20041;-79
2022/12/20 13:17:13;;;;;;;5.67;4.40;;;9.90;99.90;;;;;;5046842;28;20057;-80
2022/12/20 13:19:49;;;;;;;6.82;4.95;;;9.90;99.90;;;;;;5049305;28;20060;-79
2022/12/20 13:22:23;;;;;;;5.97;4.22;;;9.90;99.90;;;;;;5045692;28;20370;-76
2022/12/20 13:24:53;;;;;;;;;;;9.90;99.90;;;;;;5052564;28;20037;-77